createdAt,value
2023-05-25T00:01:44.209Z,8.30
2023-05-25T00:04:17.654Z,8.00
2023-05-25T00:06:47.424Z,8.50
2023-05-25T00:09:15.647Z,7.40
2023-05-25T00:11:43.569Z,7.70
2023-05-25T00:14:11.508Z,8.30
2023-05-25T00:16:41.033Z,8.90
2023-05-25T00:19:10.834Z,8.50
2023-05-25T00:21:39.022Z,8.30
2023-05-25T00:24:07.670Z,8.40
2023-05-25T00:26:36.153Z,8.70
2023-05-25T00:29:04.915Z,8.80
2023-05-25T00:31:33.580Z,8.70
2023-05-25T00:34:01.788Z,8.90
2023-05-25T00:36:29.750Z,8.40
2023-05-25T00:38:57.799Z,8.50
2023-05-25T00:41:27.285Z,8.60
2023-05-25T00:43:55.280Z,9.10
2023-05-25T00:46:23.788Z,8.50
2023-05-25T00:48:54.831Z,8.50
2023-05-25T00:51:22.949Z,9.00
2023-05-25T00:53:50.975Z,9.50
2023-05-25T00:56:28.310Z,9.10
2023-05-25T00:58:59.162Z,9.40
2023-05-25T01:01:27.642Z,8.90
2023-05-25T01:03:57.840Z,9.30
2023-05-25T01:06:27.311Z,9.30
2023-05-25T01:09:00.769Z,9.30
2023-05-25T01:11:33.180Z,10.40
2023-05-25T01:14:01.834Z,10.30
2023-05-25T01:16:30.070Z,9.60
2023-05-25T01:18:58.187Z,10.00
2023-05-25T01:21:52.002Z,10.20
2023-05-25T01:24:32.866Z,12.10
2023-05-25T01:27:06.296Z,10.40
2023-05-25T01:29:35.396Z,10.50
2023-05-25T01:32:04.575Z,10.50
2023-05-25T01:34:32.830Z,10.00
2023-05-25T01:37:00.905Z,10.00
2023-05-25T01:39:28.863Z,10.10
2023-05-25T01:41:56.738Z,10.70
2023-05-25T01:44:26.095Z,10.50
2023-05-25T01:47:03.878Z,10.10
2023-05-25T01:50:23.156Z,11.20
2023-05-25T01:53:04.078Z,11.20
2023-05-25T01:55:48.438Z,10.80
2023-05-25T01:58:17.182Z,10.50
2023-05-25T02:00:47.384Z,10.10
2023-05-25T02:03:15.855Z,10.70
2023-05-25T02:05:44.054Z,10.90
2023-05-25T02:08:12.167Z,11.10
2023-05-25T02:10:39.998Z,10.10
2023-05-25T02:13:08.000Z,9.80
2023-05-25T02:15:36.062Z,11.00
2023-05-25T02:18:05.880Z,10.30
2023-05-25T02:20:33.783Z,10.90
2023-05-25T02:23:01.819Z,11.00
2023-05-25T02:25:29.740Z,11.20
2023-05-25T02:27:57.786Z,11.60
2023-05-25T02:30:25.859Z,12.20
2023-05-25T02:32:54.156Z,11.40
2023-05-25T02:35:22.817Z,11.50
2023-05-25T02:37:51.223Z,11.80
2023-05-25T02:40:19.375Z,11.70
2023-05-25T02:42:47.255Z,11.00
2023-05-25T02:45:15.506Z,10.80
2023-05-25T02:47:43.451Z,10.40
2023-05-25T02:50:11.503Z,11.30
2023-05-25T02:52:39.927Z,10.60
2023-05-25T02:55:10.391Z,11.10
2023-05-25T02:57:39.041Z,10.10
2023-05-25T03:00:07.829Z,9.90
2023-05-25T03:02:35.728Z,9.90
2023-05-25T03:05:04.779Z,10.20
2023-05-25T03:07:33.259Z,9.70
2023-05-25T03:10:01.134Z,9.60
2023-05-25T03:12:29.155Z,10.30
2023-05-25T03:14:57.290Z,9.70
2023-05-25T03:17:25.160Z,10.70
2023-05-25T03:19:53.299Z,9.40
2023-05-25T03:22:21.204Z,9.50
2023-05-25T03:24:50.265Z,9.20
2023-05-25T03:27:18.327Z,9.20
2023-05-25T03:29:49.217Z,10.20
2023-05-25T03:32:17.676Z,9.50
2023-05-25T03:34:45.793Z,9.80
2023-05-25T03:37:13.767Z,9.10
2023-05-25T03:39:41.605Z,9.60
2023-05-25T03:42:09.641Z,9.80
2023-05-25T03:44:39.308Z,9.70
2023-05-25T03:47:08.976Z,9.70
2023-05-25T03:49:36.811Z,8.60
2023-05-25T03:52:06.316Z,9.20
2023-05-25T03:54:34.278Z,9.00
2023-05-25T03:57:03.805Z,9.10
2023-05-25T03:59:31.913Z,8.90
2023-05-25T04:01:59.851Z,10.00
2023-05-25T04:04:28.354Z,8.70
2023-05-25T04:06:56.423Z,8.40
2023-05-25T04:09:24.462Z,9.10
2023-05-25T04:11:52.524Z,9.10
2023-05-25T04:14:21.513Z,9.00
2023-05-25T04:16:49.519Z,8.10
2023-05-25T04:19:17.617Z,7.70
2023-05-25T04:21:45.678Z,8.10
2023-05-25T04:24:13.594Z,8.10
2023-05-25T04:26:41.573Z,7.40
2023-05-25T04:29:10.104Z,8.20
2023-05-25T04:31:39.257Z,7.80
2023-05-25T04:34:09.680Z,7.10
2023-05-25T04:36:38.980Z,6.80
2023-05-25T04:39:07.540Z,6.60
2023-05-25T04:41:37.753Z,6.70
2023-05-25T04:44:09.895Z,7.30
2023-05-25T04:49:08.654Z,6.30
2023-05-25T04:51:37.499Z,6.50
2023-05-25T04:54:06.057Z,6.30
2023-05-25T04:56:34.114Z,6.20
2023-05-25T04:59:01.972Z,6.20
2023-05-25T05:01:30.984Z,6.40
2023-05-25T05:03:59.076Z,6.60
2023-05-25T05:06:27.311Z,6.10
2023-05-25T05:08:55.153Z,6.00
2023-05-25T05:11:23.668Z,5.80
2023-05-25T05:13:51.501Z,5.70
2023-05-25T05:16:19.491Z,6.20
2023-05-25T05:18:47.473Z,6.40
2023-05-25T05:21:15.421Z,5.40
2023-05-25T05:23:43.889Z,5.90
2023-05-25T05:26:15.526Z,5.70
2023-05-25T05:28:43.429Z,5.60
2023-05-25T05:31:12.346Z,5.30
2023-05-25T05:33:40.466Z,6.00
2023-05-25T05:36:09.122Z,5.90
2023-05-25T05:38:38.214Z,4.90
2023-05-25T05:41:14.161Z,6.70
2023-05-25T05:43:43.842Z,5.50
2023-05-25T05:46:11.712Z,5.50
2023-05-25T05:48:39.800Z,5.40
2023-05-25T05:51:07.716Z,5.10
2023-05-25T05:53:35.856Z,4.80
2023-05-25T05:56:04.132Z,5.70
2023-05-25T05:58:32.575Z,4.80
2023-05-25T06:01:01.524Z,5.20
2023-05-25T06:03:29.386Z,6.20
2023-05-25T06:05:57.247Z,7.40
2023-05-25T06:08:25.222Z,11.10
2023-05-25T06:10:53.275Z,9.20
2023-05-25T06:13:21.448Z,5.60
2023-05-25T06:15:49.237Z,5.70
2023-05-25T06:18:17.036Z,10.40
2023-05-25T06:20:44.996Z,8.30
2023-05-25T06:23:14.143Z,7.30
2023-05-25T06:25:42.175Z,8.10
2023-05-25T06:28:10.310Z,8.60
2023-05-25T06:30:38.408Z,4.90
2023-05-25T06:33:06.218Z,5.50
2023-05-25T06:35:34.063Z,4.80
2023-05-25T06:38:03.153Z,4.80
2023-05-25T06:40:31.400Z,4.40
2023-05-25T06:42:59.278Z,4.70
2023-05-25T06:45:27.153Z,4.00
2023-05-25T06:47:55.155Z,4.80
2023-05-25T06:50:23.179Z,4.20
2023-05-25T06:52:51.306Z,3.50
2023-05-25T06:55:19.189Z,3.70
2023-05-25T06:57:47.174Z,3.60
2023-05-25T07:00:16.509Z,4.00
2023-05-25T07:02:44.384Z,3.70
2023-05-25T07:05:12.523Z,3.70
2023-05-25T07:07:40.502Z,4.10
2023-05-25T07:10:09.478Z,4.00
2023-05-25T07:12:37.341Z,3.50
2023-05-25T07:15:06.409Z,3.90
2023-05-25T07:17:36.488Z,3.70
2023-05-25T07:20:06.492Z,4.00
2023-05-25T07:22:34.941Z,3.80
2023-05-25T07:25:02.905Z,3.60
2023-05-25T07:27:31.580Z,3.70
2023-05-25T07:29:59.579Z,3.40
2023-05-25T07:32:27.450Z,4.40
2023-05-25T07:34:55.387Z,3.40
2023-05-25T07:37:23.374Z,4.20
2023-05-25T07:39:51.399Z,3.50
2023-05-25T07:42:21.150Z,3.30
2023-05-25T07:44:49.342Z,3.10
2023-05-25T07:47:17.318Z,3.20
2023-05-25T07:49:45.142Z,3.00
2023-05-25T07:52:13.137Z,3.50
2023-05-25T07:54:41.224Z,3.50
2023-05-25T07:57:09.150Z,3.20
2023-05-25T07:59:37.293Z,3.10
2023-05-25T08:02:05.170Z,3.30
2023-05-25T08:04:33.925Z,3.00
2023-05-25T08:07:02.683Z,3.40
2023-05-25T08:09:30.552Z,3.00
2023-05-25T08:12:21.279Z,3.70
2023-05-25T08:14:46.376Z,3.20
2023-05-25T08:17:14.378Z,3.20
2023-05-25T08:19:42.379Z,3.50
2023-05-25T08:22:11.611Z,2.90
2023-05-25T08:24:39.685Z,2.80
2023-05-25T08:27:07.644Z,2.80
2023-05-25T08:29:35.875Z,2.90
2023-05-25T08:32:04.731Z,2.90
2023-05-25T08:34:32.757Z,2.90
2023-05-25T08:37:01.360Z,2.70
2023-05-25T08:39:29.258Z,3.10
2023-05-25T08:41:57.255Z,2.90
2023-05-25T08:44:27.366Z,3.30
2023-05-25T08:46:57.228Z,3.30
2023-05-25T08:49:26.072Z,3.30
2023-05-25T08:51:55.175Z,3.00
2023-05-25T08:54:26.449Z,3.90
2023-05-25T08:56:59.342Z,3.00
2023-05-25T08:59:51.796Z,3.00
2023-05-25T09:02:25.110Z,3.30
2023-05-25T09:04:53.265Z,3.60
2023-05-25T09:07:21.365Z,2.90
2023-05-25T09:09:49.257Z,3.30
2023-05-25T09:12:17.266Z,3.50
2023-05-25T09:14:48.088Z,3.40
2023-05-25T09:17:18.600Z,3.40
2023-05-25T09:19:47.248Z,3.50
2023-05-25T09:22:16.561Z,3.40
2023-05-25T09:24:45.581Z,3.50
2023-05-25T09:27:22.440Z,3.30
2023-05-25T09:29:51.138Z,3.30
2023-05-25T09:32:19.987Z,3.80
2023-05-25T09:34:48.614Z,3.30
2023-05-25T09:37:18.998Z,3.30
2023-05-25T09:39:48.015Z,3.70
2023-05-25T09:42:17.196Z,3.40
2023-05-25T09:44:45.248Z,2.90
2023-05-25T09:47:14.035Z,3.20
2023-05-25T09:49:44.408Z,3.20
2023-05-25T09:52:12.623Z,3.60
2023-05-25T09:54:44.440Z,3.10
2023-05-25T09:57:12.282Z,3.60
2023-05-25T09:59:40.148Z,3.50
2023-05-25T10:02:08.019Z,3.20
2023-05-25T10:04:35.987Z,3.30
2023-05-25T10:07:04.837Z,3.00
2023-05-25T10:09:41.756Z,3.30
2023-05-25T10:12:10.366Z,3.40
2023-05-25T10:14:38.987Z,3.30
2023-05-25T10:17:10.502Z,3.10
2023-05-25T10:19:42.891Z,4.00
2023-05-25T10:22:22.205Z,3.60
2023-05-25T10:25:05.842Z,3.50
2023-05-25T10:27:41.390Z,3.30
2023-05-25T10:30:10.544Z,3.90
2023-05-25T10:32:38.621Z,3.70
2023-05-25T10:35:07.452Z,4.60
2023-05-25T10:37:36.241Z,3.90
2023-05-25T10:40:08.798Z,3.80
2023-05-25T10:42:38.016Z,4.10
2023-05-25T10:45:08.801Z,3.60
2023-05-25T10:47:42.390Z,5.20
2023-05-25T10:50:34.136Z,4.00
2023-05-25T10:53:13.769Z,4.00
2023-05-25T10:55:54.992Z,3.80
2023-05-25T10:58:23.709Z,3.70
2023-05-25T11:01:04.325Z,3.70
2023-05-25T11:03:44.872Z,3.30
2023-05-25T11:06:21.795Z,3.70
2023-05-25T11:08:59.881Z,3.60
2023-05-25T11:11:42.625Z,3.70
2023-05-25T11:14:27.781Z,3.70
2023-05-25T11:17:14.654Z,3.80
2023-05-25T11:19:51.910Z,3.80
2023-05-25T11:22:32.045Z,3.70
2023-05-25T11:25:01.665Z,3.20
2023-05-25T11:27:32.100Z,3.20
2023-05-25T11:30:00.632Z,3.60
2023-05-25T11:32:29.348Z,3.50
2023-05-25T11:34:58.545Z,3.70
2023-05-25T11:37:33.385Z,3.70
2023-05-25T11:40:01.562Z,3.60
2023-05-25T11:42:29.561Z,3.50
2023-05-25T11:45:02.736Z,3.60
2023-05-25T11:47:32.727Z,3.60
2023-05-25T11:50:01.743Z,3.60
2023-05-25T11:52:29.728Z,3.40
2023-05-25T11:54:57.631Z,3.00
2023-05-25T11:57:26.345Z,3.20
2023-05-25T11:59:57.610Z,3.70
2023-05-25T12:02:25.696Z,3.30
2023-05-25T12:05:01.498Z,3.20
2023-05-25T12:07:34.238Z,3.20
2023-05-25T12:10:11.922Z,3.10
2023-05-25T12:12:51.773Z,3.40
2023-05-25T12:15:24.364Z,3.50
2023-05-25T12:17:53.952Z,3.20
2023-05-25T12:20:22.452Z,3.30
2023-05-25T12:22:50.781Z,3.30
2023-05-25T12:25:21.566Z,3.40
2023-05-25T12:27:49.755Z,3.30
2023-05-25T12:30:17.974Z,3.20
2023-05-25T12:33:15.785Z,3.40
2023-05-25T12:35:47.569Z,3.10
2023-05-25T12:38:21.553Z,3.20
2023-05-25T12:41:08.517Z,3.70
2023-05-25T12:43:43.253Z,3.20
2023-05-25T12:46:11.841Z,3.00
2023-05-25T12:48:40.216Z,2.80
2023-05-25T12:51:10.588Z,3.40
2023-05-25T12:53:51.844Z,2.90
2023-05-25T12:56:19.800Z,3.00
2023-05-25T12:58:47.750Z,3.40
2023-05-25T13:01:15.621Z,3.30
2023-05-25T13:03:43.863Z,2.80
2023-05-25T13:06:12.598Z,3.20
2023-05-25T13:08:40.837Z,3.30
2023-05-25T13:11:09.057Z,3.40
2023-05-25T13:13:37.536Z,3.00
2023-05-25T13:16:05.793Z,2.80
2023-05-25T13:18:33.968Z,3.00
2023-05-25T13:21:02.351Z,3.10
2023-05-25T13:23:31.593Z,3.20
2023-05-25T13:25:59.960Z,3.30
2023-05-25T13:28:30.756Z,3.00
2023-05-25T13:30:58.784Z,3.00
2023-05-25T13:33:27.014Z,3.40
2023-05-25T13:35:59.237Z,3.40
2023-05-25T13:38:29.643Z,3.40
2023-05-25T13:40:58.124Z,3.40
2023-05-25T13:43:26.690Z,3.00
2023-05-25T13:45:54.840Z,3.00
2023-05-25T13:48:22.900Z,3.20
2023-05-25T13:50:51.251Z,3.50
2023-05-25T13:53:19.329Z,2.90
2023-05-25T13:55:47.769Z,2.80
2023-05-25T13:58:15.634Z,3.30
2023-05-25T14:00:43.930Z,3.70
2023-05-25T14:03:12.621Z,3.30
2023-05-25T14:05:40.841Z,3.40
2023-05-25T14:08:09.172Z,3.20
2023-05-25T14:10:38.951Z,3.50
2023-05-25T14:13:06.786Z,3.00
2023-05-25T14:15:34.714Z,3.20
2023-05-25T14:18:02.811Z,3.60
2023-05-25T14:20:33.921Z,3.30
2023-05-25T14:23:01.938Z,3.40
2023-05-25T14:25:29.724Z,3.70
2023-05-25T14:27:57.995Z,3.20
2023-05-25T14:30:25.913Z,3.50
2023-05-25T14:32:53.889Z,3.60
2023-05-25T14:35:21.822Z,3.00
2023-05-25T14:37:49.843Z,3.50
2023-05-25T14:40:17.793Z,3.20
2023-05-25T14:42:45.663Z,3.00
2023-05-25T14:45:15.874Z,3.60
2023-05-25T14:47:44.541Z,3.40
2023-05-25T14:50:12.532Z,3.50
2023-05-25T14:52:42.177Z,3.10
2023-05-25T14:55:10.652Z,3.10
2023-05-25T14:57:38.772Z,3.10
2023-05-25T15:00:07.743Z,3.30
2023-05-25T15:02:35.833Z,3.30
2023-05-25T15:05:04.074Z,3.60
2023-05-25T15:07:31.950Z,3.20
2023-05-25T15:09:59.991Z,3.00
2023-05-25T15:12:27.839Z,2.80
2023-05-25T15:14:55.765Z,3.20
2023-05-25T15:17:23.874Z,3.20
2023-05-25T15:19:51.709Z,3.30
2023-05-25T15:22:19.699Z,2.90
2023-05-25T15:24:47.718Z,3.20
2023-05-25T15:27:15.776Z,2.90
2023-05-25T15:29:43.709Z,2.50
2023-05-25T15:32:14.029Z,2.70
2023-05-25T15:34:42.202Z,2.90
2023-05-25T15:37:11.913Z,3.10
2023-05-25T15:39:40.881Z,2.60
2023-05-25T15:42:08.932Z,3.20
2023-05-25T15:44:37.020Z,2.50
2023-05-25T15:47:05.119Z,2.70
2023-05-25T15:49:36.842Z,2.50
2023-05-25T15:52:05.380Z,3.20
2023-05-25T15:54:33.297Z,3.10
2023-05-25T15:57:02.232Z,2.60
2023-05-25T15:59:30.197Z,2.90
2023-05-25T16:01:58.077Z,3.20
2023-05-25T16:04:26.578Z,2.70
2023-05-25T16:06:54.507Z,3.50
2023-05-25T16:09:22.521Z,2.60
2023-05-25T16:11:50.392Z,3.50
2023-05-25T16:14:18.325Z,2.70
2023-05-25T16:16:46.270Z,2.60
2023-05-25T16:19:14.498Z,2.80
2023-05-25T16:21:42.406Z,3.40
2023-05-25T16:24:10.803Z,2.80
2023-05-25T16:26:38.689Z,2.70
2023-05-25T16:29:06.500Z,2.40
2023-05-25T16:31:34.826Z,2.50
2023-05-25T16:34:05.984Z,2.50
2023-05-25T16:36:33.854Z,2.50
2023-05-25T16:39:01.853Z,2.80
2023-05-25T16:41:29.828Z,2.80
2023-05-25T16:43:57.789Z,2.70
2023-05-25T16:46:25.890Z,2.90
2023-05-25T16:48:53.890Z,2.70
2023-05-25T16:51:21.808Z,3.30
2023-05-25T16:53:51.027Z,2.80
2023-05-25T16:56:21.529Z,2.70
2023-05-25T16:58:49.516Z,2.70
2023-05-25T17:01:17.517Z,2.80
2023-05-25T17:03:45.561Z,3.10
2023-05-25T17:06:14.102Z,2.60
2023-05-25T17:08:41.997Z,2.80
2023-05-25T17:11:09.797Z,3.10
2023-05-25T17:13:38.068Z,3.10
2023-05-25T17:16:06.223Z,2.70
2023-05-25T17:18:34.262Z,2.40
2023-05-25T17:21:02.274Z,2.70
2023-05-25T17:23:30.182Z,2.50
2023-05-25T17:25:58.576Z,2.70
2023-05-25T17:28:27.819Z,2.80
2023-05-25T17:30:56.691Z,2.60
2023-05-25T17:33:26.117Z,2.70
2023-05-25T17:35:54.085Z,2.90
2023-05-25T17:38:22.343Z,3.20
2023-05-25T17:40:50.455Z,3.10
2023-05-25T17:43:19.258Z,3.20
2023-05-25T17:45:48.010Z,2.80
2023-05-25T17:48:16.182Z,3.20
2023-05-25T17:50:44.133Z,3.00
2023-05-25T17:53:12.898Z,2.70
2023-05-25T17:55:40.946Z,3.20
2023-05-25T17:58:08.823Z,2.80
2023-05-25T18:00:37.430Z,3.00
2023-05-25T18:03:05.622Z,3.00
2023-05-25T18:05:33.770Z,3.00
2023-05-25T18:08:01.920Z,4.40
2023-05-25T18:10:30.392Z,3.00
2023-05-25T18:12:58.359Z,3.50
2023-05-25T18:15:26.510Z,3.10
2023-05-25T18:17:54.580Z,3.40
2023-05-25T18:20:22.641Z,3.70
2023-05-25T18:22:50.709Z,3.60
2023-05-25T18:25:18.734Z,3.20
2023-05-25T18:27:47.192Z,3.00
2023-05-25T18:30:18.886Z,3.50
2023-05-25T18:32:47.359Z,3.50
2023-05-25T18:35:15.942Z,3.40
2023-05-25T18:37:44.216Z,3.30
2023-05-25T18:40:13.092Z,4.00
2023-05-25T18:42:41.505Z,4.70
2023-05-25T18:45:10.747Z,3.70
2023-05-25T18:47:39.508Z,4.90
2023-05-25T18:50:08.865Z,6.40
2023-05-25T18:52:37.042Z,7.70
2023-05-25T18:55:08.547Z,6.30
2023-05-25T18:57:37.458Z,5.10
2023-05-25T19:00:08.933Z,5.70
2023-05-25T19:02:38.662Z,5.70
2023-05-25T19:05:07.925Z,7.60
2023-05-25T19:07:47.000Z,7.40
2023-05-25T19:10:23.829Z,5.30
2023-05-25T19:12:52.083Z,4.20
2023-05-25T19:15:20.237Z,4.50
2023-05-25T19:17:48.382Z,5.70
2023-05-25T19:20:17.109Z,7.00
2023-05-25T19:22:45.298Z,10.80
2023-05-25T19:25:13.369Z,8.40
2023-05-25T19:27:41.398Z,6.60
2023-05-25T19:30:09.905Z,6.20
2023-05-25T19:32:38.212Z,6.00
2023-05-25T19:35:06.737Z,6.30
2023-05-25T19:37:37.835Z,5.20
2023-05-25T19:40:09.117Z,4.80
2023-05-25T19:42:38.000Z,4.70
2023-05-25T19:45:06.950Z,5.30
2023-05-25T19:47:35.325Z,4.40
2023-05-25T19:50:04.363Z,4.80
2023-05-25T19:52:32.858Z,4.60
2023-05-25T19:55:02.034Z,5.60
2023-05-25T19:57:32.304Z,4.40
2023-05-25T20:00:01.389Z,9.30
2023-05-25T20:02:30.094Z,15.60
2023-05-25T20:04:58.727Z,8.00
2023-05-25T20:07:27.143Z,6.50
2023-05-25T20:09:55.514Z,5.90
2023-05-25T20:12:24.033Z,7.40
2023-05-25T20:14:52.371Z,6.80
2023-05-25T20:17:21.366Z,6.10
2023-05-25T20:19:51.145Z,5.00
2023-05-25T20:22:19.931Z,5.50
2023-05-25T20:24:50.781Z,5.70
2023-05-25T20:27:19.430Z,6.10
2023-05-25T20:29:47.929Z,6.20
2023-05-25T20:32:16.323Z,6.20
2023-05-25T20:34:44.239Z,5.80
2023-05-25T20:37:12.307Z,5.70
2023-05-25T20:39:40.179Z,5.60
2023-05-25T20:42:08.185Z,5.20
2023-05-25T20:44:36.410Z,5.80
2023-05-25T20:47:05.190Z,5.80
2023-05-25T20:49:33.238Z,6.10
2023-05-25T20:52:01.357Z,5.80
2023-05-25T20:54:29.389Z,7.30
2023-05-25T20:56:57.376Z,6.20
2023-05-25T20:59:25.513Z,6.40
2023-05-25T21:01:53.670Z,5.90
2023-05-25T21:04:21.792Z,5.80
2023-05-25T21:06:49.923Z,6.20
2023-05-25T21:09:17.901Z,5.80
2023-05-25T21:11:45.842Z,6.60
2023-05-25T21:14:13.862Z,6.00
2023-05-25T21:16:42.115Z,6.60
2023-05-25T21:19:10.971Z,6.80
2023-05-25T21:21:39.114Z,6.30
2023-05-25T21:24:07.178Z,9.20
2023-05-25T21:26:35.455Z,9.70
2023-05-25T21:29:03.441Z,8.30
2023-05-25T21:31:31.515Z,7.60
2023-05-25T21:34:00.249Z,6.80
2023-05-25T21:36:28.521Z,6.80
2023-05-25T21:38:56.609Z,7.10
2023-05-25T21:41:26.289Z,5.80
2023-05-25T21:43:54.203Z,6.20
2023-05-25T21:46:22.141Z,6.10
2023-05-25T21:48:50.738Z,6.20
2023-05-25T21:51:19.519Z,6.40
2023-05-25T21:53:48.434Z,6.40
2023-05-25T21:56:17.140Z,6.40
2023-05-25T21:58:45.704Z,5.80
2023-05-25T22:03:55.382Z,6.00
2023-05-25T22:06:23.954Z,6.00
2023-05-25T22:08:51.822Z,5.50
2023-05-25T22:11:22.147Z,5.40
2023-05-25T22:13:50.137Z,6.30
2023-05-25T22:16:18.103Z,5.40
2023-05-25T22:18:46.095Z,4.70
2023-05-25T22:21:14.886Z,4.80
2023-05-25T22:23:42.793Z,4.30
2023-05-25T22:26:10.735Z,4.40
2023-05-25T22:28:38.625Z,4.60
2023-05-25T22:31:06.690Z,4.10
2023-05-25T22:33:34.668Z,4.90
2023-05-25T22:36:02.563Z,4.40
2023-05-25T22:38:30.465Z,4.80
2023-05-25T22:40:59.050Z,4.80
2023-05-25T22:43:27.129Z,4.10
2023-05-25T22:45:55.130Z,4.40
2023-05-25T22:48:23.129Z,4.60
2023-05-25T22:50:51.130Z,4.70
2023-05-25T22:53:19.241Z,4.90
2023-05-25T22:55:47.630Z,4.00
2023-05-25T22:58:15.680Z,4.80
2023-05-25T23:00:43.683Z,4.70
2023-05-25T23:03:11.692Z,4.60
2023-05-25T23:05:39.722Z,4.50
2023-05-25T23:08:08.741Z,4.70
2023-05-25T23:10:36.664Z,4.50
2023-05-25T23:13:06.328Z,4.60
2023-05-25T23:15:36.592Z,5.20
2023-05-25T23:18:04.560Z,4.60
2023-05-25T23:20:34.071Z,4.10
2023-05-25T23:23:02.093Z,4.80
2023-05-25T23:25:30.055Z,4.70
2023-05-25T23:27:58.030Z,4.60
2023-05-25T23:30:26.228Z,5.00
2023-05-25T23:32:54.266Z,5.30
2023-05-25T23:35:23.318Z,4.40
2023-05-25T23:37:52.139Z,4.90
2023-05-25T23:40:20.233Z,5.20
2023-05-25T23:42:48.120Z,4.70
2023-05-25T23:45:16.848Z,4.40
2023-05-25T23:47:44.909Z,4.60
2023-05-25T23:50:12.809Z,4.90
2023-05-25T23:52:41.719Z,5.00
2023-05-25T23:55:09.931Z,4.90
2023-05-25T23:57:38.409Z,4.60
